createdAt,value
2023-02-08T00:01:20.290Z,34.94
2023-02-08T00:03:47.870Z,34.98
2023-02-08T00:06:15.190Z,35.54
2023-02-08T00:08:42.326Z,35.54
2023-02-08T00:11:12.410Z,35.45
2023-02-08T00:13:41.976Z,35.61
2023-02-08T00:16:09.966Z,36.26
2023-02-08T00:18:37.177Z,36.63
2023-02-08T00:21:08.463Z,36.83
2023-02-08T00:23:36.079Z,37.03
2023-02-08T00:26:03.297Z,36.75
2023-02-08T00:28:30.497Z,37.18
2023-02-08T00:30:58.127Z,37.00
2023-02-08T00:33:25.465Z,36.91
2023-02-08T00:35:58.191Z,36.61
2023-02-08T00:38:25.720Z,36.85
2023-02-08T00:40:52.919Z,36.09
2023-02-08T00:43:20.096Z,35.81
2023-02-08T00:45:47.513Z,35.02
2023-02-08T00:48:14.712Z,35.28
2023-02-08T00:50:42.045Z,35.52
2023-02-08T00:53:09.553Z,35.06
2023-02-08T00:55:36.715Z,35.36
2023-02-08T00:58:04.607Z,34.95
2023-02-08T01:00:32.069Z,34.85
2023-02-08T01:02:59.302Z,34.80
2023-02-08T01:05:26.466Z,34.55
2023-02-08T01:07:53.939Z,35.21
2023-02-08T01:10:21.181Z,34.44
2023-02-08T01:12:48.432Z,33.72
2023-02-08T01:15:15.843Z,33.62
2023-02-08T01:17:43.108Z,33.36
2023-02-08T01:20:10.693Z,33.40
2023-02-08T01:22:38.127Z,33.51
2023-02-08T01:25:05.351Z,33.33
2023-02-08T01:27:32.668Z,33.49
2023-02-08T01:30:00.113Z,34.10
2023-02-08T01:32:28.609Z,33.90
2023-02-08T01:34:55.734Z,33.66
2023-02-08T01:37:23.137Z,34.32
2023-02-08T01:39:50.304Z,34.14
2023-02-08T01:42:18.997Z,33.87
2023-02-08T01:45:01.719Z,33.93
2023-02-08T01:47:28.899Z,34.16
2023-02-08T01:49:56.322Z,34.15
2023-02-08T01:52:25.343Z,33.74
2023-02-08T01:55:12.708Z,33.73
2023-02-08T01:57:40.181Z,35.09
2023-02-08T02:00:08.775Z,34.01
2023-02-08T02:02:41.028Z,34.72
2023-02-08T02:05:08.664Z,34.92
2023-02-08T02:07:36.057Z,34.73
2023-02-08T02:10:06.166Z,34.47
2023-02-08T02:12:33.571Z,34.38
2023-02-08T02:15:01.637Z,33.53
2023-02-08T02:17:30.148Z,33.24
2023-02-08T02:20:20.390Z,33.35
2023-02-08T02:23:06.893Z,33.25
2023-02-08T02:26:06.600Z,33.82
2023-02-08T02:28:53.001Z,33.91
2023-02-08T02:31:22.385Z,34.33
2023-02-08T02:33:58.741Z,35.28
2023-02-08T02:36:33.173Z,35.90
2023-02-08T02:39:07.568Z,35.02
2023-02-08T02:42:02.183Z,36.83
2023-02-08T02:44:38.799Z,35.71
2023-02-08T02:47:09.350Z,35.02
2023-02-08T02:49:44.091Z,35.05
2023-02-08T02:52:11.881Z,34.82
2023-02-08T02:54:44.985Z,34.73
2023-02-08T02:57:12.806Z,34.51
2023-02-08T02:59:40.290Z,34.15
2023-02-08T03:02:07.462Z,33.88
2023-02-08T03:04:34.742Z,33.49
2023-02-08T03:07:11.250Z,33.49
2023-02-08T03:09:52.995Z,33.09
2023-02-08T03:12:26.352Z,33.20
2023-02-08T03:14:53.611Z,33.23
2023-02-08T03:17:39.820Z,33.20
2023-02-08T03:20:26.135Z,33.18
2023-02-08T03:22:59.302Z,32.90
2023-02-08T03:25:33.529Z,33.19
2023-02-08T03:28:00.946Z,33.59
2023-02-08T03:30:30.797Z,33.08
2023-02-08T03:33:03.258Z,33.11
2023-02-08T03:35:38.461Z,32.42
2023-02-08T03:38:09.787Z,32.16
2023-02-08T03:40:38.425Z,33.25
2023-02-08T03:43:10.456Z,34.30
2023-02-08T03:45:39.845Z,33.16
2023-02-08T03:48:08.894Z,32.97
2023-02-08T03:50:36.571Z,33.38
2023-02-08T03:53:04.123Z,32.81
2023-02-08T03:55:32.048Z,32.69
2023-02-08T03:57:59.414Z,32.82
2023-02-08T04:00:26.806Z,33.33
2023-02-08T04:02:56.191Z,33.04
2023-02-08T04:05:24.092Z,33.00
2023-02-08T04:07:51.592Z,33.33
2023-02-08T04:10:19.186Z,32.68
2023-02-08T04:12:46.620Z,33.01
2023-02-08T04:15:13.772Z,32.53
2023-02-08T04:17:41.403Z,32.83
2023-02-08T04:20:08.665Z,32.65
2023-02-08T04:22:35.965Z,32.72
2023-02-08T04:25:03.618Z,32.66
2023-02-08T04:27:30.773Z,33.22
2023-02-08T04:29:57.888Z,33.36
2023-02-08T04:32:25.320Z,34.12
2023-02-08T04:34:52.457Z,33.33
2023-02-08T04:37:19.605Z,32.61
2023-02-08T04:39:47.178Z,32.46
2023-02-08T04:42:14.308Z,32.91
2023-02-08T04:44:41.484Z,32.50
2023-02-08T04:47:08.920Z,32.88
2023-02-08T04:49:36.065Z,33.43
2023-02-08T04:52:03.277Z,34.45
2023-02-08T04:54:30.720Z,33.09
2023-02-08T04:56:57.839Z,32.97
2023-02-08T04:59:25.042Z,33.32
2023-02-08T05:01:52.563Z,33.00
2023-02-08T05:04:19.704Z,32.61
2023-02-08T05:06:48.407Z,32.80
2023-02-08T05:09:15.980Z,33.30
2023-02-08T05:11:43.153Z,33.15
2023-02-08T05:14:10.345Z,32.64
2023-02-08T05:16:37.801Z,32.60
2023-02-08T05:19:04.952Z,33.15
2023-02-08T05:21:32.175Z,33.55
2023-02-08T05:23:59.594Z,33.55
2023-02-08T05:26:26.827Z,33.41
2023-02-08T05:28:54.025Z,32.84
2023-02-08T05:31:22.843Z,32.90
2023-02-08T05:33:50.787Z,32.58
2023-02-08T05:36:18.164Z,32.12
2023-02-08T05:38:45.833Z,33.81
2023-02-08T05:41:12.958Z,33.80
2023-02-08T05:43:40.107Z,34.89
2023-02-08T05:46:07.841Z,33.96
2023-02-08T05:48:35.038Z,33.99
2023-02-08T05:51:02.224Z,34.05
2023-02-08T05:53:29.791Z,33.69
2023-02-08T05:55:59.938Z,33.65
2023-02-08T05:58:27.297Z,33.75
2023-02-08T06:00:54.704Z,33.04
2023-02-08T06:03:22.216Z,32.36
2023-02-08T06:05:49.637Z,32.65
2023-02-08T06:08:16.756Z,33.25
2023-02-08T06:10:45.909Z,33.21
2023-02-08T06:13:13.101Z,33.24
2023-02-08T06:15:40.432Z,32.17
2023-02-08T06:18:09.209Z,32.48
2023-02-08T06:20:36.529Z,32.94
2023-02-08T06:23:03.788Z,32.86
2023-02-08T06:25:31.284Z,32.67
2023-02-08T06:27:58.558Z,32.29
2023-02-08T06:30:25.769Z,32.66
2023-02-08T06:32:53.175Z,32.05
2023-02-08T06:35:20.360Z,32.72
2023-02-08T06:37:47.491Z,34.99
2023-02-08T06:40:14.895Z,33.58
2023-02-08T06:42:43.094Z,33.06
2023-02-08T06:45:12.625Z,32.70
2023-02-08T06:47:40.937Z,33.35
2023-02-08T06:50:08.387Z,33.11
2023-02-08T06:52:35.552Z,32.38
2023-02-08T06:55:02.984Z,32.18
2023-02-08T06:57:30.195Z,32.31
2023-02-08T06:59:57.511Z,32.22
2023-02-08T07:02:25.035Z,31.83
2023-02-08T07:04:52.278Z,32.19
2023-02-08T07:07:19.393Z,32.76
2023-02-08T07:09:46.934Z,32.30
2023-02-08T07:12:14.161Z,31.70
2023-02-08T07:14:42.585Z,31.74
2023-02-08T07:17:10.633Z,31.63
2023-02-08T07:19:37.781Z,31.24
2023-02-08T07:22:08.207Z,31.11
2023-02-08T07:24:40.740Z,30.43
2023-02-08T07:27:08.351Z,30.91
2023-02-08T07:29:36.051Z,30.68
2023-02-08T07:32:03.917Z,30.73
2023-02-08T07:34:31.785Z,29.24
2023-02-08T07:36:59.301Z,29.62
2023-02-08T07:39:26.506Z,29.27
2023-02-08T07:41:53.690Z,29.27
2023-02-08T07:44:22.650Z,29.29
2023-02-08T07:46:49.932Z,30.94
2023-02-08T07:49:17.088Z,30.27
2023-02-08T07:51:44.526Z,31.08
2023-02-08T07:54:11.695Z,28.58
2023-02-08T07:56:38.865Z,29.89
2023-02-08T07:59:06.677Z,31.19
2023-02-08T08:01:33.899Z,32.91
2023-02-08T08:04:01.375Z,32.41
2023-02-08T08:06:28.551Z,33.26
2023-02-08T08:08:55.723Z,33.23
2023-02-08T08:11:23.211Z,34.16
2023-02-08T08:13:50.522Z,35.81
2023-02-08T08:16:18.138Z,36.96
2023-02-08T08:18:45.661Z,37.49
2023-02-08T08:21:12.845Z,38.71
2023-02-08T08:23:40.833Z,39.53
2023-02-08T08:26:09.290Z,37.69
2023-02-08T08:28:36.808Z,37.75
2023-02-08T08:31:04.119Z,35.80
2023-02-08T08:33:31.643Z,35.72
2023-02-08T08:35:58.833Z,35.17
2023-02-08T08:38:26.045Z,37.30
2023-02-08T08:40:53.459Z,38.21
2023-02-08T08:43:20.651Z,38.17
2023-02-08T08:45:49.200Z,39.92
2023-02-08T08:48:17.111Z,39.82
2023-02-08T08:50:44.304Z,41.08
2023-02-08T08:53:11.485Z,40.07
2023-02-08T08:55:38.874Z,40.00
2023-02-08T08:58:06.125Z,39.99
2023-02-08T09:00:33.261Z,40.32
2023-02-08T09:03:00.738Z,40.21
2023-02-08T09:05:27.957Z,40.80
2023-02-08T09:07:55.165Z,39.27
2023-02-08T09:10:22.642Z,38.44
2023-02-08T09:12:49.880Z,40.00
2023-02-08T09:15:17.239Z,39.62
2023-02-08T09:17:44.739Z,40.40
2023-02-08T09:20:11.883Z,39.40
2023-02-08T09:22:39.096Z,39.30
2023-02-08T09:25:07.710Z,37.46
2023-02-08T09:27:35.101Z,37.78
2023-02-08T09:30:02.362Z,38.05
2023-02-08T09:32:34.190Z,36.58
2023-02-08T09:35:02.436Z,35.93
2023-02-08T09:37:30.186Z,36.56
2023-02-08T09:40:00.046Z,39.40
2023-02-08T09:42:27.192Z,37.55
2023-02-08T09:45:07.158Z,35.87
2023-02-08T09:47:44.814Z,34.31
2023-02-08T09:50:28.203Z,34.27
2023-02-08T09:52:59.638Z,36.00
2023-02-08T09:55:32.447Z,34.57
2023-02-08T09:57:59.746Z,33.10
2023-02-08T10:00:39.299Z,35.10
2023-02-08T10:03:06.793Z,34.83
2023-02-08T10:05:35.713Z,33.70
2023-02-08T10:08:02.977Z,31.86
2023-02-08T10:10:37.901Z,31.30
2023-02-08T10:13:13.875Z,32.85
2023-02-08T10:15:43.001Z,31.89
2023-02-08T10:18:19.346Z,33.22
2023-02-08T10:21:05.453Z,33.89
2023-02-08T10:23:32.665Z,33.64
2023-02-08T10:26:18.639Z,34.76
2023-02-08T10:28:50.442Z,33.00
2023-02-08T10:31:22.539Z,33.87
2023-02-08T10:33:52.204Z,31.92
2023-02-08T10:36:21.029Z,31.41
2023-02-08T10:38:57.144Z,32.17
2023-02-08T10:41:37.816Z,32.41
2023-02-08T10:44:14.528Z,33.24
2023-02-08T10:46:47.951Z,31.03
2023-02-08T10:49:21.447Z,30.84
2023-02-08T10:51:50.864Z,31.97
2023-02-08T10:54:19.385Z,33.06
2023-02-08T10:56:52.253Z,31.76
2023-02-08T10:59:21.219Z,32.12
2023-02-08T11:01:58.296Z,30.53
2023-02-08T11:04:31.765Z,30.78
2023-02-08T11:06:59.110Z,31.04
2023-02-08T11:09:26.756Z,30.56
2023-02-08T11:11:56.090Z,31.67
2023-02-08T11:14:27.141Z,32.02
2023-02-08T11:17:05.625Z,31.94
2023-02-08T11:19:39.948Z,33.05
2023-02-08T11:22:08.875Z,33.55
2023-02-08T11:24:43.923Z,33.88
2023-02-08T11:27:33.391Z,34.55
2023-02-08T11:30:14.027Z,34.31
2023-02-08T11:32:44.766Z,36.83
2023-02-08T11:35:29.408Z,34.46
2023-02-08T11:38:05.003Z,34.01
2023-02-08T11:40:35.065Z,33.61
2023-02-08T11:43:03.801Z,33.79
2023-02-08T11:45:40.978Z,32.68
2023-02-08T11:48:14.621Z,34.31
2023-02-08T11:50:41.816Z,33.57
2023-02-08T11:53:21.276Z,34.81
2023-02-08T11:55:55.763Z,33.88
2023-02-08T11:58:24.723Z,33.55
2023-02-08T12:01:18.404Z,34.57
2023-02-08T12:03:48.097Z,34.23
2023-02-08T12:06:24.245Z,35.18
2023-02-08T12:09:14.546Z,35.23
2023-02-08T12:11:43.217Z,35.52
2023-02-08T12:14:22.829Z,34.15
2023-02-08T12:16:52.959Z,35.20
2023-02-08T12:19:40.185Z,35.08
2023-02-08T12:22:11.406Z,33.81
2023-02-08T12:24:57.876Z,34.34
2023-02-08T12:27:37.517Z,34.66
2023-02-08T12:30:11.710Z,36.12
2023-02-08T12:32:45.869Z,34.05
2023-02-08T12:35:17.437Z,36.07
2023-02-08T12:38:10.406Z,34.77
2023-02-08T12:40:50.787Z,34.51
2023-02-08T12:43:20.970Z,35.69
2023-02-08T12:45:57.289Z,36.79
2023-02-08T12:48:31.108Z,36.31
2023-02-08T12:51:04.775Z,35.46
2023-02-08T12:53:33.826Z,34.74
2023-02-08T12:56:02.671Z,34.01
2023-02-08T12:58:35.218Z,34.26
2023-02-08T13:01:09.593Z,32.76
2023-02-08T13:03:39.812Z,33.36
2023-02-08T13:06:07.907Z,34.06
2023-02-08T13:08:55.814Z,34.09
2023-02-08T13:11:23.188Z,34.76
2023-02-08T13:14:10.833Z,34.61
2023-02-08T13:16:40.331Z,35.29
2023-02-08T13:19:07.451Z,34.04
2023-02-08T13:21:38.123Z,34.47
2023-02-08T13:24:06.754Z,34.44
2023-02-08T13:26:34.687Z,33.77
2023-02-08T13:29:02.532Z,33.44
2023-02-08T13:31:31.867Z,34.04
2023-02-08T13:34:08.318Z,33.63
2023-02-08T13:36:36.733Z,33.51
2023-02-08T13:39:05.851Z,33.91
2023-02-08T13:41:33.475Z,34.71
2023-02-08T13:44:01.599Z,35.16
2023-02-08T13:46:29.444Z,35.47
2023-02-08T13:48:57.467Z,35.39
2023-02-08T13:51:30.741Z,36.71
2023-02-08T13:53:57.974Z,34.66
2023-02-08T13:56:37.531Z,34.85
2023-02-08T13:59:05.944Z,33.87
2023-02-08T14:01:34.674Z,32.74
2023-02-08T14:04:08.166Z,33.10
2023-02-08T14:06:36.351Z,34.75
2023-02-08T14:09:12.475Z,34.83
2023-02-08T14:11:45.592Z,32.90
2023-02-08T14:14:15.041Z,34.16
2023-02-08T14:16:42.621Z,34.39
2023-02-08T14:19:15.988Z,34.87
2023-02-08T14:21:47.095Z,34.77
2023-02-08T14:24:34.495Z,34.24
2023-02-08T14:27:17.152Z,34.34
2023-02-08T14:29:44.405Z,33.96
2023-02-08T14:32:22.072Z,33.77
2023-02-08T14:34:49.210Z,34.04
2023-02-08T14:37:20.494Z,34.46
2023-02-08T14:39:50.561Z,33.79
2023-02-08T14:42:37.946Z,33.63
2023-02-08T14:45:05.613Z,32.44
2023-02-08T14:47:35.337Z,33.57
2023-02-08T14:50:14.175Z,34.22
2023-02-08T14:52:43.212Z,34.72
2023-02-08T14:55:15.342Z,34.29
2023-02-08T14:57:42.804Z,35.56
2023-02-08T15:00:17.605Z,34.78
2023-02-08T15:02:45.575Z,34.40
2023-02-08T15:05:22.977Z,33.91
2023-02-08T15:08:08.699Z,33.24
2023-02-08T15:10:36.318Z,33.31
2023-02-08T15:13:06.495Z,33.87
2023-02-08T15:15:39.955Z,33.01
2023-02-08T15:18:07.707Z,32.59
2023-02-08T15:20:35.101Z,33.49
2023-02-08T15:23:06.311Z,33.54
2023-02-08T15:25:34.749Z,33.98
2023-02-08T15:28:20.788Z,34.45
2023-02-08T15:31:09.256Z,34.71
2023-02-08T15:33:39.883Z,34.88
2023-02-08T15:36:24.667Z,34.32
2023-02-08T15:38:51.971Z,34.27
2023-02-08T15:41:29.644Z,33.50
2023-02-08T15:44:12.927Z,33.77
2023-02-08T15:46:41.805Z,33.63
2023-02-08T15:49:11.879Z,33.88
2023-02-08T15:51:39.001Z,33.42
2023-02-08T15:54:08.535Z,31.90
2023-02-08T15:56:39.537Z,32.59
2023-02-08T15:59:08.919Z,32.29
2023-02-08T16:01:36.236Z,31.93
2023-02-08T16:04:12.252Z,31.52
2023-02-08T16:06:40.705Z,31.97
2023-02-08T16:09:13.471Z,31.13
2023-02-08T16:11:40.691Z,30.67
2023-02-08T16:14:08.374Z,31.82
2023-02-08T16:16:35.554Z,30.40
2023-02-08T16:19:22.952Z,30.59
2023-02-08T16:21:50.864Z,30.25
2023-02-08T16:24:19.965Z,29.71
2023-02-08T16:26:58.045Z,29.89
2023-02-08T16:29:25.558Z,29.86
2023-02-08T16:31:57.552Z,30.12
2023-02-08T16:34:24.854Z,30.78
2023-02-08T16:36:52.350Z,31.65
2023-02-08T16:39:39.445Z,31.03
2023-02-08T16:42:15.915Z,30.33
2023-02-08T16:44:57.147Z,30.74
2023-02-08T16:47:25.654Z,29.88
2023-02-08T16:49:52.775Z,29.58
2023-02-08T16:52:20.078Z,29.75
2023-02-08T16:54:47.631Z,29.82
2023-02-08T16:57:14.899Z,29.12
2023-02-08T16:59:42.292Z,28.86
2023-02-08T17:02:11.252Z,28.84
2023-02-08T17:04:38.755Z,28.89
2023-02-08T17:07:06.054Z,28.83
2023-02-08T17:09:33.783Z,28.99
2023-02-08T17:12:01.299Z,29.22
2023-02-08T17:14:28.484Z,28.97
2023-02-08T17:16:55.951Z,28.97
2023-02-08T17:19:23.160Z,29.43
2023-02-08T17:21:50.339Z,29.39
2023-02-08T17:24:17.818Z,29.25
2023-02-08T17:26:45.234Z,29.63
2023-02-08T17:29:12.866Z,29.50
2023-02-08T17:31:41.177Z,29.73
2023-02-08T17:34:08.559Z,29.76
2023-02-08T17:36:36.198Z,29.70
2023-02-08T17:39:05.228Z,29.57
2023-02-08T17:41:33.570Z,29.79
2023-02-08T17:44:00.845Z,29.70
2023-02-08T17:46:30.598Z,29.62
2023-02-08T17:49:01.480Z,30.11
2023-02-08T17:51:29.252Z,29.71
2023-02-08T17:53:57.108Z,29.60
2023-02-08T17:56:25.712Z,30.05
2023-02-08T17:58:54.470Z,30.05
2023-02-08T18:01:22.813Z,30.16
2023-02-08T18:03:51.692Z,29.98
2023-02-08T18:06:19.175Z,30.19
2023-02-08T18:08:46.553Z,30.67
2023-02-08T18:11:19.565Z,30.58
2023-02-08T18:13:47.605Z,30.42
2023-02-08T18:16:16.615Z,30.38
2023-02-08T18:18:44.225Z,30.29
2023-02-08T18:21:12.240Z,30.50
2023-02-08T18:23:40.113Z,30.36
2023-02-08T18:26:08.332Z,30.56
2023-02-08T18:28:37.191Z,30.66
2023-02-08T18:31:10.185Z,30.79
2023-02-08T18:33:37.696Z,30.69
2023-02-08T18:36:06.362Z,30.81
2023-02-08T18:38:33.697Z,30.76
2023-02-08T18:41:01.758Z,30.69
2023-02-08T18:43:29.326Z,30.80
2023-02-08T18:46:00.419Z,30.46
2023-02-08T18:48:27.760Z,30.74
2023-02-08T18:50:56.640Z,30.66
2023-02-08T18:53:24.936Z,30.52
2023-02-08T18:55:52.966Z,30.38
2023-02-08T18:58:20.914Z,30.63
2023-02-08T19:00:48.507Z,30.80
2023-02-08T19:03:16.362Z,30.84
2023-02-08T19:05:44.450Z,30.90
2023-02-08T19:08:12.476Z,31.20
2023-02-08T19:10:40.115Z,31.22
2023-02-08T19:13:07.941Z,30.75
2023-02-08T19:15:36.566Z,30.71
2023-02-08T19:18:04.325Z,31.18
2023-02-08T19:20:34.344Z,30.83
2023-02-08T19:23:03.228Z,30.82
2023-02-08T19:25:30.656Z,31.03
2023-02-08T19:27:58.742Z,31.19
2023-02-08T19:30:26.036Z,30.90
2023-02-08T19:32:53.377Z,31.03
2023-02-08T19:35:21.938Z,31.37
2023-02-08T19:37:51.363Z,31.35
2023-02-08T19:40:19.013Z,31.46
2023-02-08T19:42:46.772Z,31.52
2023-02-08T19:45:14.301Z,31.91
2023-02-08T19:47:51.036Z,32.28
2023-02-08T19:50:18.977Z,32.38
2023-02-08T19:52:46.360Z,32.91
2023-02-08T19:55:13.725Z,32.52
2023-02-08T19:57:41.299Z,32.78
2023-02-08T20:00:22.612Z,32.65
2023-02-08T20:02:51.362Z,32.75
2023-02-08T20:05:18.696Z,34.52
2023-02-08T20:07:45.907Z,33.63
2023-02-08T20:10:13.529Z,33.36
2023-02-08T20:12:40.899Z,33.44
2023-02-08T20:15:08.434Z,33.23
2023-02-08T20:17:36.213Z,32.82
2023-02-08T20:20:03.700Z,33.05
2023-02-08T20:22:31.111Z,33.33
2023-02-08T20:24:58.697Z,32.69
2023-02-08T20:27:30.816Z,32.89
2023-02-08T20:29:58.373Z,33.05
2023-02-08T20:32:25.988Z,33.67
2023-02-08T20:34:59.482Z,33.29
2023-02-08T20:37:27.691Z,33.14
2023-02-08T20:39:55.017Z,33.45
2023-02-08T20:42:22.611Z,33.68
2023-02-08T20:44:50.478Z,33.57
2023-02-08T20:47:21.846Z,33.53
2023-02-08T20:49:49.380Z,34.24
2023-02-08T20:52:17.807Z,34.01
2023-02-08T20:54:46.005Z,33.64
2023-02-08T20:57:18.221Z,34.25
2023-02-08T20:59:46.026Z,34.07
2023-02-08T21:02:17.343Z,33.79
2023-02-08T21:04:44.619Z,33.50
2023-02-08T21:07:12.345Z,33.88
2023-02-08T21:09:39.632Z,34.26
2023-02-08T21:12:06.863Z,33.87
2023-02-08T21:14:34.477Z,34.09
2023-02-08T21:17:01.843Z,34.29
2023-02-08T21:19:29.656Z,34.81
2023-02-08T21:21:58.651Z,34.88
2023-02-08T21:24:26.160Z,34.56
2023-02-08T21:26:53.844Z,34.93
2023-02-08T21:29:21.442Z,35.36
2023-02-08T21:31:54.109Z,35.56
2023-02-08T21:34:22.052Z,35.68
2023-02-08T21:36:49.318Z,35.11
2023-02-08T21:39:16.631Z,35.46
2023-02-08T21:41:44.281Z,35.35
2023-02-08T21:44:11.607Z,35.65
2023-02-08T21:46:38.975Z,35.82
2023-02-08T21:49:25.341Z,35.79
2023-02-08T21:52:11.176Z,35.54
2023-02-08T21:54:41.593Z,35.59
2023-02-08T21:57:10.095Z,35.42
2023-02-08T21:59:37.802Z,35.53
2023-02-08T22:02:05.954Z,35.60
2023-02-08T22:04:34.102Z,35.95
2023-02-08T22:07:01.842Z,36.18
2023-02-08T22:09:29.250Z,35.43
2023-02-08T22:11:59.579Z,35.50
2023-02-08T22:14:26.818Z,36.16
2023-02-08T22:16:54.018Z,36.38
2023-02-08T22:19:21.478Z,36.04
2023-02-08T22:21:48.711Z,36.01
2023-02-08T22:24:15.867Z,36.76
2023-02-08T22:26:43.931Z,37.05
2023-02-08T22:29:11.288Z,36.60
2023-02-08T22:31:38.573Z,36.37
2023-02-08T22:34:06.087Z,36.32
2023-02-08T22:36:33.342Z,36.44
2023-02-08T22:39:00.539Z,36.12
2023-02-08T22:41:28.012Z,36.29
2023-02-08T22:43:55.297Z,35.83
2023-02-08T22:46:22.505Z,35.56
2023-02-08T22:48:50.108Z,35.66
2023-02-08T22:51:18.024Z,35.62
2023-02-08T22:53:45.190Z,35.69
2023-02-08T22:56:15.998Z,35.67
2023-02-08T22:58:43.248Z,35.67
2023-02-08T23:01:11.446Z,36.02
2023-02-08T23:03:39.559Z,36.23
2023-02-08T23:06:07.593Z,35.86
2023-02-08T23:08:34.923Z,35.49
2023-02-08T23:11:03.222Z,35.46
2023-02-08T23:13:30.556Z,36.01
2023-02-08T23:15:57.932Z,35.84
2023-02-08T23:18:25.788Z,35.39
2023-02-08T23:20:54.501Z,35.52
2023-02-08T23:23:21.861Z,35.96
2023-02-08T23:25:49.293Z,36.39
2023-02-08T23:28:16.542Z,36.46
2023-02-08T23:30:44.070Z,35.91
2023-02-08T23:33:11.756Z,35.86
2023-02-08T23:35:39.643Z,35.52
2023-02-08T23:38:06.810Z,35.47
2023-02-08T23:40:34.273Z,35.35
2023-02-08T23:43:01.581Z,35.18
2023-02-08T23:45:28.755Z,35.32
2023-02-08T23:47:56.201Z,35.29
2023-02-08T23:50:23.413Z,36.12
2023-02-08T23:52:50.573Z,36.12
2023-02-08T23:55:18.042Z,35.82
2023-02-08T23:57:45.241Z,36.00
